• Join FlightAware (Why Join?)
  • Login
  • US Flag 
12:34AM EDT


 

Airport Tracker/Info


-or-


 

Live Flight TrackerFlight Track Log ✈ LBQ652 ✈ 14-Jun-2013 ✈ KPTK - KDPA

Flight Track Log - Related Links

Times and Time Zones

All times are in EDT time to prevent confusion due to time zone crossing. See the LBQ652 flight status page for this flight to view local times or setup timezone preferences in your user account.

Time Position Orientation Groundspeed Altitude Reporting Facility
EDT Latitude Longitude Course Direction KTS MPH feet Rate Location/Type
02:36AM 42.6883 -83.3967 North 172 198 2,900  Level Cleveland Center
02:37AM 42.6803 -83.4753 262° West 232 267 3,000 900 Climbing Cleveland Center
02:38AM 42.6669 -83.5819 260° West 258 297 4,700 1,920 Climbing Cleveland Center
02:39AM 42.6539 -83.6831 260° West 280 322 6,900 1,980 Climbing Cleveland Center
02:40AM 42.6386 -83.7867 259° West 280 322 8,700 1,500 Climbing Cleveland Center
02:41AM 42.6211 -83.8931 257° West 280 322 10,000 1,140 Climbing Cleveland Center
02:42AM 42.6053 -84.0053 259° West 292 336 11,000 960 Climbing Cleveland Center
02:43AM 42.5872 -84.1197 258° West 303 349 12,000 960 Climbing Cleveland Center
02:44AM 42.5708 -84.2403 260° West 321 369 13,000 1,020 Climbing Cleveland Center
02:45AM 42.5544 -84.3606 260° West 321 369 14,100 1,020 Climbing Cleveland Center
02:46AM 42.5511 -84.3881 261° West 326 375 14,400 900 Climbing Chicago Center
02:47AM 42.5325 -84.5097 258° West 329 379 15,400 960 Climbing Chicago Center
02:48AM 42.5147 -84.6311 259° West 330 380 16,400 1,020 Climbing Chicago Center
02:49AM 42.4961 -84.7525 258° West 330 380 17,500 960 Climbing Chicago Center
02:50AM 42.4778 -84.8733 258° West 329 379 18,400 900 Climbing Chicago Center
02:51AM 42.4589 -84.9947 258° West 330 380 19,400 960 Climbing Chicago Center
02:52AM 42.4406 -85.1158 258° West 327 376 20,400 960 Climbing Chicago Center
02:53AM 42.4217 -85.2383 258° West 333 383 21,400 960 Climbing Chicago Center
02:54AM 42.4022 -85.3608 258° West 333 383 22,400 960 Climbing Chicago Center
02:55AM 42.3828 -85.4831 258° West 333 383 23,400 960 Climbing Chicago Center
02:56AM 42.3631 -85.6050 258° West 333 383 24,400 960 Climbing Chicago Center
02:57AM 42.3447 -85.7231 258° West 325 374 25,400 1,020 Climbing Chicago Center
02:58AM 42.3250 -85.8422 257° West 324 373 26,500 1,020 Climbing Chicago Center
02:59AM 42.3061 -85.9583 258° West 318 366 27,500 720 Climbing Chicago Center
03:00AM 42.2864 -86.0853 258° West 320 368 28,000 240 Climbing Chicago Center
03:01AM 42.2650 -86.2094 257° West 339 390 28,000  Level Chicago Center
03:02AM 42.2433 -86.3378 257° West 351 404 28,000  Level Chicago Center
03:03AM 42.2203 -86.4667 256° West 354 407 28,000  Level Chicago Center
03:04AM 42.1992 -86.5956 258° West 356 410 28,000  Level Chicago Center
03:05AM 42.1769 -86.7328 258° West 352 405 28,000  Level Chicago Center
03:06AM 42.1550 -86.8614 257° West 354 407 28,000  Level Chicago Center
03:07AM 42.1333 -86.9900 257° West 355 409 28,000 -60 Level Chicago Center
03:08AM 42.1097 -87.1156 256° West 350 403 27,900 -1,440 Descending Chicago Center
03:09AM 42.0872 -87.2481 257° West 362 417 25,200 -3,180 Descending Chicago Center
03:10AM 42.0631 -87.3831 256° West 373 429 21,600 -3,540 Descending Chicago Center
03:11AM 42.0403 -87.5111 257° West 360 414 18,100 -3,360 Descending Chicago Center
03:12AM 42.0189 -87.6356 257° West 346 398 14,900 -3,300 Descending Chicago Center
03:13AM 41.9972 -87.7553 256° West 334 384 11,600 -3,180 Descending Chicago Center
03:14AM 41.9775 -87.8653 256° West 312 359 8,600 -3,240 Descending Chicago Center
03:14AM 41.9667 -87.9333 258° West 323 372 6,700 -3,000 Descending Chicago TRACON
03:15AM 41.9500 -88.0333 257° West 272 313 4,000 -2,340 Descending Chicago TRACON
03:16AM 41.9333 -88.1167 255° West 261 300 2,300 -1,200 Descending Chicago TRACON
03:17AM 41.9217 -88.1586 250° West 272 313 2,300  Level Chicago Center
03:18AM 41.8922 -88.2128 234° Southwest 237 273 2,300 -480 Level Chicago Center
03:19AM 41.8664 -88.2517 228° Southwest 191 220 1,400 -720 Descending Chicago Center
03:20AM 41.8925 -88.2486 North 144 166 900 -540 Descending Chicago Center